Time;durP1;ratioP1;P1;durP2;ratioP2;P2;SDS_P1;SDS_P2;PMS_P1;PMS_P2;Temp;Humidity;BMP_temperature;BMP_pressure;BME280_temperature;BME280_humidity;BME280_pressure;Samples;Min_cycle;Max_cycle;Signal;HPM_P1;HPM_P2
2021/04/05 00:02:15;;;;;;;7.23;6.60;;;11.10;19.40;;;;;;5073582;28;20259;-67
2021/04/05 00:04:41;;;;;;;9.37;7.30;;;11.20;19.50;;;;;;5074460;28;20191;-67
2021/04/05 00:07:08;;;;;;;6.80;5.70;;;11.30;19.20;;;;;;5073904;28;20703;-67
2021/04/05 00:09:33;;;;;;;6.30;5.70;;;11.40;19.10;;;;;;5062910;28;20241;-67
2021/04/05 00:11:59;;;;;;;8.03;6.60;;;11.30;19.20;;;;;;5054423;28;20418;-67
2021/04/05 00:14:26;;;;;;;8.43;6.73;;;11.30;19.30;;;;;;5054306;28;20192;-64
2021/04/05 00:16:52;;;;;;;7.50;6.53;;;11.40;19.30;;;;;;5053661;28;20438;-67
2021/04/05 00:19:18;;;;;;;11.93;6.27;;;11.40;19.50;;;;;;5053755;28;20422;-66
2021/04/05 00:21:43;;;;;;;8.10;6.67;;;11.50;19.30;;;;;;5054393;28;20898;-66
2021/04/05 00:24:09;;;;;;;7.90;6.43;;;11.40;19.00;;;;;;5054083;28;20214;-63
2021/04/05 00:26:35;;;;;;;11.13;5.77;;;11.60;19.20;;;;;;5054816;28;20169;-65
2021/04/05 00:29:01;;;;;;;9.00;6.00;;;11.50;18.90;;;;;;5054361;28;20452;-66
2021/04/05 00:31:26;;;;;;;6.53;5.77;;;11.40;19.10;;;;;;5055133;28;20195;-67
2021/04/05 00:33:52;;;;;;;5.97;5.50;;;11.30;19.80;;;;;;5053698;28;20788;-66
2021/04/05 00:36:17;;;;;;;8.40;6.30;;;11.60;19.10;;;;;;5054420;28;20581;-66
2021/04/05 00:38:43;;;;;;;6.60;5.47;;;11.50;18.90;;;;;;5052638;28;20204;-66
2021/04/05 00:41:14;;;;;;;5.97;5.47;;;11.20;19.40;;;;;;5053771;28;20257;-67
2021/04/05 00:43:41;;;;;;;9.37;6.70;;;11.00;19.90;;;;;;5054540;28;20341;-65
2021/04/05 00:46:08;;;;;;;7.27;6.60;;;10.90;19.90;;;;;;5054435;28;20407;-66
2021/04/05 00:48:35;;;;;;;6.70;6.03;;;10.80;20.20;;;;;;5053276;28;21157;-66
2021/04/05 00:51:14;;;;;;;6.57;5.83;;;10.80;20.10;;;;;;5054199;28;20409;-67
2021/04/05 00:53:44;;;;;;;6.70;6.00;;;10.70;20.50;;;;;;5054319;28;20423;-65
2021/04/05 00:56:12;;;;;;;6.50;5.70;;;10.60;20.40;;;;;;5052946;28;20988;-66
2021/04/05 00:58:38;;;;;;;6.33;5.73;;;10.60;20.70;;;;;;5054503;28;20785;-67
2021/04/05 01:01:07;;;;;;;6.73;5.50;;;10.60;20.60;;;;;;5055101;28;20513;-68
2021/04/05 01:03:39;;;;;;;7.83;5.87;;;10.60;20.60;;;;;;5054324;28;20972;-67
2021/04/05 01:06:14;;;;;;;7.20;5.53;;;10.50;20.60;;;;;;5054823;28;20411;-65
2021/04/05 01:08:41;;;;;;;5.43;4.93;;;10.50;20.70;;;;;;5053984;28;20858;-66
2021/04/05 01:11:08;;;;;;;5.67;5.03;;;10.60;20.50;;;;;;5055165;28;20441;-65
2021/04/05 01:13:34;;;;;;;6.10;5.37;;;10.60;20.40;;;;;;5055062;28;20525;-65
2021/04/05 01:16:00;;;;;;;5.47;4.97;;;10.70;20.60;;;;;;5054243;28;20454;-63
2021/04/05 01:18:27;;;;;;;6.20;5.60;;;10.60;20.40;;;;;;5053779;28;20485;-67
2021/04/05 01:20:53;;;;;;;6.77;5.87;;;10.30;20.90;;;;;;5054372;28;20172;-67
2021/04/05 01:23:21;;;;;;;6.77;5.93;;;10.20;21.20;;;;;;5054173;28;20519;-64
2021/04/05 01:25:47;;;;;;;7.33;5.43;;;10.20;21.20;;;;;;5053556;28;20693;-66
2021/04/05 01:28:13;;;;;;;6.60;5.40;;;10.20;21.20;;;;;;5053985;28;20448;-66
2021/04/05 01:30:45;;;;;;;11.17;6.07;;;10.10;21.40;;;;;;5054209;28;20418;-67
2021/04/05 01:33:24;;;;;;;7.00;6.10;;;10.10;21.50;;;;;;5053929;28;20447;-67
2021/04/05 01:35:56;;;;;;;6.50;6.00;;;10.30;21.50;;;;;;5054691;28;20501;-66
2021/04/05 01:38:26;;;;;;;9.50;5.90;;;10.20;21.40;;;;;;5053052;28;20434;-66
2021/04/05 01:40:55;;;;;;;7.60;5.70;;;10.10;21.50;;;;;;5054348;28;20434;-67
2021/04/05 01:43:21;;;;;;;7.73;4.90;;;9.90;22.60;;;;;;5054066;28;20470;-66
2021/04/05 01:45:47;;;;;;;7.53;6.03;;;9.90;22.50;;;;;;5052562;28;20475;-67
2021/04/05 01:48:14;;;;;;;7.20;5.20;;;9.80;22.90;;;;;;5061733;28;20426;-65
2021/04/05 01:50:41;;;;;;;6.80;5.10;;;10.00;21.90;;;;;;5070990;28;20218;-66
2021/04/05 01:53:07;;;;;;;5.63;5.13;;;10.10;21.90;;;;;;5065788;28;20442;-67
2021/04/05 01:55:34;;;;;;;6.30;5.70;;;10.00;21.80;;;;;;5054061;28;20432;-66
2021/04/05 01:58:01;;;;;;;5.40;4.90;;;10.00;22.00;;;;;;5053083;28;20425;-67
2021/04/05 02:00:29;;;;;;;6.90;5.40;;;9.80;22.70;;;;;;5067652;28;20554;-64
2021/04/05 02:02:56;;;;;;;7.53;5.90;;;9.80;22.70;;;;;;5073363;28;20461;-66
2021/04/05 02:05:25;;;;;;;7.73;5.30;;;9.90;23.20;;;;;;5073672;28;20753;-66
2021/04/05 02:07:51;;;;;;;6.50;4.47;;;10.00;22.00;;;;;;5072814;28;20445;-64
2021/04/05 02:10:24;;;;;;;7.60;5.30;;;10.10;21.70;;;;;;5073383;28;20896;-67
2021/04/05 02:12:51;;;;;;;5.60;5.00;;;10.00;21.80;;;;;;5073497;28;20547;-66
2021/04/05 02:15:17;;;;;;;8.30;5.60;;;9.90;22.70;;;;;;5066099;28;20418;-67
2021/04/05 02:17:45;;;;;;;5.27;4.77;;;10.00;21.90;;;;;;5053678;28;20529;-65
2021/04/05 02:20:13;;;;;;;6.27;4.83;;;9.90;22.70;;;;;;5054813;28;20418;-66
2021/04/05 02:22:46;;;;;;;9.30;6.10;;;9.80;23.10;;;;;;5052670;28;20468;-66
2021/04/05 02:25:15;;;;;;;5.77;5.23;;;9.80;23.40;;;;;;5054024;28;20823;-66
2021/04/05 02:27:43;;;;;;;5.13;4.70;;;9.70;23.50;;;;;;5053564;28;20418;-64
2021/04/05 02:30:10;;;;;;;7.83;6.23;;;9.70;23.30;;;;;;5053634;28;20407;-66
2021/04/05 02:32:38;;;;;;;8.80;5.57;;;9.60;23.60;;;;;;5054754;28;20457;-65
2021/04/05 02:35:05;;;;;;;5.57;5.07;;;9.50;23.60;;;;;;5051650;28;20434;-66
2021/04/05 02:37:30;;;;;;;7.43;5.30;;;9.60;23.70;;;;;;5070960;28;20833;-66
2021/04/05 02:39:56;;;;;;;5.77;5.27;;;9.40;23.60;;;;;;5074109;28;20441;-66
2021/04/05 02:42:22;;;;;;;7.40;5.77;;;9.30;24.20;;;;;;5074490;28;20548;-65
2021/04/05 02:44:49;;;;;;;6.13;5.63;;;9.70;23.70;;;;;;5074781;28;20360;-66
2021/04/05 02:47:14;;;;;;;8.30;5.83;;;9.80;23.80;;;;;;5074415;28;20406;-66
2021/04/05 02:49:41;;;;;;;6.60;5.80;;;9.90;23.60;;;;;;5074794;28;20424;-65
2021/04/05 02:52:08;;;;;;;6.30;4.97;;;10.00;22.60;;;;;;5072244;28;20704;-66
2021/04/05 02:54:34;;;;;;;7.73;5.30;;;9.90;23.40;;;;;;5075383;28;20438;-67
2021/04/05 02:57:00;;;;;;;8.40;5.87;;;9.90;23.30;;;;;;5074622;28;20410;-65
2021/04/05 02:59:26;;;;;;;7.83;6.17;;;10.00;22.30;;;;;;5074233;28;20421;-66
2021/04/05 03:01:52;;;;;;;7.67;5.60;;;9.90;23.00;;;;;;5075036;28;20266;-67
2021/04/05 03:04:18;;;;;;;6.43;5.80;;;10.00;22.50;;;;;;5074999;28;20461;-66
2021/04/05 03:06:43;;;;;;;5.80;5.23;;;10.10;22.20;;;;;;5073919;28;20470;-67
2021/04/05 03:09:09;;;;;;;11.63;5.63;;;10.20;22.30;;;;;;5074542;28;20424;-66
2021/04/05 03:11:36;;;;;;;7.47;5.10;;;10.00;22.20;;;;;;5074718;28;20182;-64
2021/04/05 03:14:05;;;;;;;5.93;5.33;;;9.90;23.20;;;;;;5071536;28;20199;-66
2021/04/05 03:16:31;;;;;;;7.27;5.20;;;10.00;22.50;;;;;;5073044;28;20418;-66
2021/04/05 03:19:00;;;;;;;6.83;5.97;;;9.90;23.00;;;;;;5072350;28;20414;-66
2021/04/05 03:21:26;;;;;;;6.53;5.90;;;9.80;23.60;;;;;;5071749;28;20500;-66
2021/04/05 03:23:52;;;;;;;7.17;5.47;;;9.80;23.80;;;;;;5072743;28;20528;-66
2021/04/05 03:26:18;;;;;;;6.80;5.73;;;9.90;23.90;;;;;;5073904;28;20408;-67
2021/04/05 03:28:44;;;;;;;6.40;5.80;;;10.10;23.00;;;;;;5072799;28;20406;-66
2021/04/05 03:31:14;;;;;;;7.07;5.33;;;10.00;22.90;;;;;;5073119;28;20410;-66
2021/04/05 03:33:44;;;;;;;8.10;5.77;;;10.00;22.50;;;;;;5072762;28;20191;-66
2021/04/05 03:36:19;;;;;;;7.23;5.00;;;10.00;22.60;;;;;;5071954;28;20412;-66
2021/04/05 03:38:45;;;;;;;10.33;6.33;;;10.00;22.60;;;;;;5071927;28;20902;-66
2021/04/05 03:41:23;;;;;;;9.50;5.60;;;9.90;23.40;;;;;;5072200;28;20448;-66
2021/04/05 03:44:10;;;;;;;6.70;6.00;;;9.80;23.80;;;;;;5069828;28;20559;-66
2021/04/05 03:46:43;;;;;;;8.10;5.53;;;9.70;23.80;;;;;;5067355;28;20517;-65
2021/04/05 03:49:14;;;;;;;9.13;5.90;;;10.00;23.20;;;;;;5051528;28;20413;-65
2021/04/05 03:51:57;;;;;;;6.63;6.13;;;10.00;23.00;;;;;;5066761;28;20409;-66
2021/04/05 03:54:26;;;;;;;5.50;5.00;;;10.20;22.90;;;;;;5072423;28;20422;-67
2021/04/05 03:56:53;;;;;;;6.43;4.90;;;10.30;22.40;;;;;;5072416;28;20974;-65
2021/04/05 03:59:26;;;;;;;6.70;6.07;;;10.40;22.40;;;;;;5070959;28;20417;-66
2021/04/05 04:01:56;;;;;;;6.27;5.70;;;10.10;22.80;;;;;;5071976;28;20416;-65
2021/04/05 04:04:27;;;;;;;6.53;5.90;;;10.20;22.60;;;;;;5072212;28;20465;-66
2021/04/05 04:09:27;;;;;;;9.10;5.80;;;10.40;22.60;;;;;;5073610;28;20410;-66
2021/04/05 04:11:56;;;;;;;6.67;5.83;;;10.50;22.30;;;;;;5074527;28;20843;-66
2021/04/05 04:14:22;;;;;;;5.90;4.53;;;10.50;22.40;;;;;;5073296;28;20509;-66
2021/04/05 04:16:49;;;;;;;7.17;6.20;;;10.50;22.60;;;;;;5073756;28;21155;-66
2021/04/05 04:19:17;;;;;;;6.73;5.93;;;10.20;22.70;;;;;;5071723;28;20479;-66
2021/04/05 04:21:45;;;;;;;9.23;7.00;;;10.40;22.80;;;;;;5075802;28;20768;-65
2021/04/05 04:24:11;;;;;;;16.20;7.10;;;10.40;23.10;;;;;;5074761;28;20490;-65
2021/04/05 04:26:37;;;;;;;8.47;6.33;;;10.50;23.20;;;;;;5076277;28;20406;-66
2021/04/05 04:29:04;;;;;;;7.60;6.40;;;10.40;23.20;;;;;;5074319;28;20409;-66
2021/04/05 04:31:30;;;;;;;7.50;5.43;;;10.40;22.90;;;;;;5076058;28;20174;-67
2021/04/05 04:33:56;;;;;;;10.80;5.77;;;9.90;23.90;;;;;;5075553;28;20589;-65
2021/04/05 04:36:25;;;;;;;7.57;5.33;;;9.80;23.80;;;;;;5074960;28;20496;-66
2021/04/05 04:38:55;;;;;;;10.43;7.17;;;9.30;24.70;;;;;;5074837;28;20198;-66
2021/04/05 04:41:23;;;;;;;7.53;5.47;;;9.40;24.80;;;;;;5075638;28;20465;-66
2021/04/05 04:44:04;;;;;;;6.77;5.37;;;9.30;25.20;;;;;;5067402;28;20553;-66
2021/04/05 04:46:30;;;;;;;8.03;5.07;;;9.00;25.30;;;;;;5059442;28;20422;-66
2021/04/05 04:49:01;;;;;;;6.67;5.50;;;9.00;25.30;;;;;;5054142;28;20557;-66
2021/04/05 04:51:28;;;;;;;7.30;6.60;;;8.90;25.60;;;;;;5054774;28;20410;-65
2021/04/05 04:53:55;;;;;;;6.97;5.67;;;8.90;25.70;;;;;;5055218;28;20506;-66
2021/04/05 04:56:21;;;;;;;7.13;5.13;;;8.70;25.90;;;;;;5053400;28;20421;-66
2021/04/05 04:58:47;;;;;;;8.07;5.17;;;9.00;25.60;;;;;;5054079;28;20443;-66
2021/04/05 05:01:13;;;;;;;10.13;5.80;;;8.90;25.40;;;;;;5055303;28;20567;-65
2021/04/05 05:03:44;;;;;;;10.67;5.30;;;9.00;25.60;;;;;;5073343;28;20467;-66
2021/04/05 05:06:12;;;;;;;6.50;5.83;;;8.80;25.60;;;;;;5065384;28;20425;-65
2021/04/05 05:08:38;;;;;;;8.27;5.53;;;8.60;26.50;;;;;;5060780;28;20419;-66
2021/04/05 05:11:05;;;;;;;6.37;5.77;;;9.00;25.90;;;;;;5067678;28;20421;-66
2021/04/05 05:13:31;;;;;;;6.30;5.63;;;9.20;25.00;;;;;;5074538;28;20426;-66
2021/04/05 05:15:57;;;;;;;7.67;5.80;;;9.30;25.40;;;;;;5075294;28;20409;-67
2021/04/05 05:18:24;;;;;;;5.57;4.70;;;9.20;24.70;;;;;;5067760;28;20201;-67
2021/04/05 05:20:51;;;;;;;5.93;5.37;;;9.20;24.80;;;;;;5054266;28;20414;-65
2021/04/05 05:23:18;;;;;;;8.40;5.20;;;9.10;25.30;;;;;;5060314;28;20837;-66
2021/04/05 05:25:45;;;;;;;6.73;5.20;;;9.00;25.20;;;;;;5060476;28;20413;-66
2021/04/05 05:28:11;;;;;;;8.73;5.47;;;8.70;25.60;;;;;;5064997;28;20423;-67
2021/04/05 05:30:37;;;;;;;6.73;4.90;;;8.80;25.50;;;;;;5057530;28;20418;-67
2021/04/05 05:33:06;;;;;;;6.47;5.80;;;8.70;25.80;;;;;;5053796;28;20495;-66
2021/04/05 05:35:36;;;;;;;6.33;5.73;;;8.60;26.00;;;;;;5062435;28;20464;-66
2021/04/05 05:38:04;;;;;;;5.53;4.80;;;8.70;26.10;;;;;;5053812;28;20952;-66
2021/04/05 05:40:31;;;;;;;6.23;5.63;;;8.80;25.90;;;;;;5063574;28;20762;-64
2021/04/05 05:43:14;;;;;;;7.40;5.10;;;8.60;26.00;;;;;;5073498;28;20491;-66
2021/04/05 05:46:01;;;;;;;6.37;4.83;;;8.90;25.80;;;;;;5065698;28;20555;-66
2021/04/05 05:48:54;;;;;;;8.33;5.30;;;9.20;25.30;;;;;;5068308;28;20418;-64
2021/04/05 05:51:43;;;;;;;9.90;5.43;;;9.30;25.00;;;;;;5076411;28;20467;-66
2021/04/05 05:54:44;;;;;;;5.50;5.00;;;9.60;24.90;;;;;;5076779;28;20491;-65
2021/04/05 05:57:14;;;;;;;5.20;4.80;;;9.70;24.40;;;;;;5062608;28;20429;-65
2021/04/05 06:00:04;;;;;;;13.17;6.40;;;9.90;23.90;;;;;;5058322;28;20772;-66
2021/04/05 06:02:49;;;;;;;7.83;5.17;;;9.90;24.10;;;;;;5057776;28;20979;-65
2021/04/05 06:05:23;;;;;;;5.00;4.50;;;10.00;23.20;;;;;;5057129;28;20407;-65
2021/04/05 06:08:17;;;;;;;6.73;4.83;;;10.10;23.30;;;;;;5064521;28;20419;-66
2021/04/05 06:11:07;;;;;;;9.47;5.10;;;10.20;23.40;;;;;;5077118;28;20509;-65
2021/04/05 06:13:48;;;;;;;5.87;5.03;;;10.30;23.10;;;;;;5077990;28;20526;-65
2021/04/05 06:16:16;;;;;;;7.27;4.80;;;10.30;22.70;;;;;;5079496;28;20439;-66
2021/04/05 06:19:00;;;;;;;6.33;4.50;;;10.30;23.00;;;;;;5074496;28;20800;-66
2021/04/05 06:21:45;;;;;;;7.80;5.20;;;10.20;22.90;;;;;;5075632;28;20428;-66
2021/04/05 06:24:34;;;;;;;6.33;5.77;;;10.30;22.80;;;;;;5074600;28;20465;-65
2021/04/05 06:27:20;;;;;;;6.30;5.70;;;10.20;23.00;;;;;;5067163;28;20990;-65
2021/04/05 06:30:03;;;;;;;6.30;5.70;;;10.30;23.40;;;;;;5069668;28;20422;-64
2021/04/05 06:32:33;;;;;;;6.37;4.67;;;10.40;23.00;;;;;;5072001;28;20477;-66
2021/04/05 06:35:37;;;;;;;7.23;5.63;;;10.40;23.00;;;;;;5070720;28;20422;-65
2021/04/05 06:38:26;;;;;;;8.33;5.13;;;10.50;22.60;;;;;;5069983;28;20425;-67
2021/04/05 06:40:59;;;;;;;12.90;5.30;;;10.60;22.60;;;;;;5070203;28;20487;-66
2021/04/05 06:44:08;;;;;;;36.43;27.37;;;10.70;22.30;;;;;;5070609;28;20552;-66
2021/04/05 06:46:49;;;;;;;9.10;6.73;;;10.80;21.50;;;;;;5028675;28;20415;-66
2021/04/05 06:49:52;;;;;;;8.43;6.07;;;10.70;21.50;;;;;;5067648;28;20508;-66
2021/04/05 06:52:57;;;;;;;6.17;4.87;;;10.60;21.40;;;;;;5071103;28;20401;-66
2021/04/05 06:55:41;;;;;;;5.20;4.80;;;10.80;21.00;;;;;;5070116;28;20431;-66
2021/04/05 06:58:36;;;;;;;5.57;5.07;;;10.60;21.10;;;;;;5070396;28;20542;-66
2021/04/05 07:01:25;;;;;;;6.27;4.60;;;10.80;21.20;;;;;;5069441;28;20406;-65
2021/04/05 07:04:32;;;;;;;6.13;4.80;;;11.00;20.90;;;;;;5060752;28;20465;-66
2021/04/05 07:07:18;;;;;;;5.80;5.20;;;11.20;20.60;;;;;;5036115;28;20457;-64
2021/04/05 07:10:06;;;;;;;6.53;5.30;;;11.10;21.00;;;;;;5057502;28;20891;-66
2021/04/05 07:12:50;;;;;;;7.60;4.90;;;11.20;20.70;;;;;;5050717;28;20410;-65
2021/04/05 07:15:42;;;;;;;6.20;4.93;;;11.30;20.60;;;;;;5050916;28;20499;-65
2021/04/05 07:18:32;;;;;;;6.10;5.53;;;11.30;20.80;;;;;;5048225;28;20415;-65
2021/04/05 07:21:24;;;;;;;8.67;5.27;;;11.30;20.50;;;;;;5051289;28;20909;-65
2021/04/05 07:24:02;;;;;;;8.90;5.43;;;11.30;21.20;;;;;;5050432;28;20458;-66
2021/04/05 07:26:36;;;;;;;7.13;5.27;;;11.40;20.60;;;;;;5049915;28;20433;-65
2021/04/05 07:29:24;;;;;;;6.00;4.80;;;11.40;20.50;;;;;;5049968;28;20815;-65
2021/04/05 07:32:04;;;;;;;4.87;4.27;;;11.50;20.80;;;;;;5050039;28;20763;-63
2021/04/05 07:34:42;;;;;;;5.47;4.17;;;11.50;20.40;;;;;;5050501;28;20426;-64
2021/04/05 07:37:19;;;;;;;4.43;4.03;;;11.60;20.60;;;;;;5049863;28;20419;-64
2021/04/05 07:39:50;;;;;;;7.70;5.07;;;11.70;20.80;;;;;;5049553;28;20434;-64
2021/04/05 07:42:26;;;;;;;6.83;5.00;;;11.80;20.50;;;;;;5050700;28;20935;-64
2021/04/05 07:44:57;;;;;;;4.80;4.33;;;11.60;20.40;;;;;;5050339;28;20438;-65
2021/04/05 07:47:33;;;;;;;7.30;5.30;;;11.60;20.80;;;;;;5047824;28;20983;-65
2021/04/05 07:50:12;;;;;;;3.67;3.40;;;11.70;20.50;;;;;;5050171;28;20402;-66
2021/04/05 07:52:58;;;;;;;3.97;3.67;;;12.70;39.60;;;;;;5050551;28;20513;-65
2021/04/05 07:55:24;;;;;;;5.27;4.30;;;14.20;31.70;;;;;;5051141;28;20413;-66
2021/04/05 07:58:01;;;;;;;10.57;5.07;;;13.60;24.50;;;;;;5063954;28;20409;-66
2021/04/05 08:00:33;;;;;;;11.23;4.67;;;13.90;34.90;;;;;;5074215;28;20484;-66
2021/04/05 08:03:02;;;;;;;5.97;5.00;;;14.30;29.70;;;;;;5063686;28;20458;-66
2021/04/05 08:05:50;;;;;;;3.77;3.47;;;13.80;18.50;;;;;;5053996;28;20410;-66
2021/04/05 08:08:51;;;;;;;13.63;4.83;;;14.30;24.10;;;;;;5053295;28;20414;-65
2021/04/05 08:11:22;;;;;;;7.40;5.40;;;13.80;17.70;;;;;;5063071;28;20413;-65
2021/04/05 08:14:16;;;;;;;8.50;5.47;;;13.20;18.90;;;;;;5073648;28;20425;-65
2021/04/05 08:16:59;;;;;;;9.60;5.80;;;12.80;19.60;;;;;;5073172;28;20508;-65
2021/04/05 08:19:56;;;;;;;5.33;4.60;;;12.70;20.00;;;;;;5073660;28;20405;-64
2021/04/05 08:22:41;;;;;;;6.50;4.60;;;12.90;19.80;;;;;;5073980;28;20432;-64
2021/04/05 08:28:35;;;;;;;7.03;4.40;;;13.10;19.60;;;;;;5073522;28;20485;-64
2021/04/05 08:31:19;;;;;;;6.07;4.97;;;13.00;19.50;;;;;;5073180;28;20501;-64
2021/04/05 08:34:10;;;;;;;6.40;3.83;;;13.00;19.50;;;;;;5073512;28;20470;-65
2021/04/05 08:36:46;;;;;;;8.43;4.53;;;13.00;19.40;;;;;;5073657;28;20908;-65
2021/04/05 08:39:25;;;;;;;9.03;4.40;;;13.10;19.70;;;;;;5071968;28;20425;-66
2021/04/05 08:42:00;;;;;;;5.00;4.10;;;13.10;19.30;;;;;;5073375;28;20405;-66
2021/04/05 08:44:43;;;;;;;11.70;4.03;;;13.20;19.80;;;;;;5073493;28;20463;-66
2021/04/05 08:47:15;;;;;;;4.97;3.90;;;13.20;18.90;;;;;;5072190;28;20785;-66
2021/04/05 08:49:44;;;;;;;4.00;3.30;;;13.10;18.60;;;;;;5073322;28;20915;-65
2021/04/05 08:52:12;;;;;;;4.60;3.97;;;13.10;17.80;;;;;;5073286;28;20413;-66
2021/04/05 08:54:39;;;;;;;5.47;3.60;;;13.10;17.10;;;;;;5072288;28;20502;-65
2021/04/05 08:57:23;;;;;;;5.20;3.33;;;13.20;17.10;;;;;;5072481;28;20410;-66
2021/04/05 08:59:57;;;;;;;6.67;3.47;;;13.20;16.50;;;;;;5073035;28;20763;-65
2021/04/05 09:02:37;;;;;;;8.27;3.43;;;13.10;15.60;;;;;;5072183;28;20417;-64
2021/04/05 09:05:09;;;;;;;6.07;4.23;;;13.00;15.60;;;;;;5073016;28;20571;-65
2021/04/05 09:07:53;;;;;;;4.97;4.10;;;13.00;15.80;;;;;;5071943;28;20398;-64
2021/04/05 09:10:26;;;;;;;3.80;3.27;;;13.00;15.50;;;;;;5072029;28;20900;-64
2021/04/05 09:12:55;;;;;;;5.70;4.00;;;13.00;15.90;;;;;;5072928;28;20453;-65
2021/04/05 09:16:08;;;;;;;6.60;4.13;;;13.10;15.60;;;;;;5073019;28;20924;-65
2021/04/05 09:19:13;;;;;;;5.00;4.50;;;13.00;16.40;;;;;;5072205;28;20777;-64
2021/04/05 09:21:51;;;;;;;4.80;3.73;;;13.00;15.90;;;;;;5069304;28;20511;-64
2021/04/05 09:24:28;;;;;;;9.00;3.40;;;13.10;16.40;;;;;;5068604;28;20662;-64
2021/04/05 09:27:15;;;;;;;6.33;4.17;;;13.10;17.00;;;;;;5063395;28;20595;-64
2021/04/05 09:29:58;;;;;;;7.47;4.37;;;13.10;17.00;;;;;;5066733;28;21066;-65
2021/04/05 09:32:59;;;;;;;3.97;3.57;;;13.00;17.00;;;;;;5066745;28;20425;-65
2021/04/05 09:35:32;;;;;;;5.00;3.23;;;13.10;17.40;;;;;;5051777;28;20472;-65
2021/04/05 09:38:25;;;;;;;5.20;3.83;;;13.00;17.00;;;;;;5050974;28;21211;-64
2021/04/05 09:41:09;;;;;;;8.40;6.03;;;13.00;16.90;;;;;;5052562;28;20401;-65
2021/04/05 09:44:07;;;;;;;9.37;4.37;;;13.10;17.00;;;;;;5052322;28;20465;-65
2021/04/05 09:46:43;;;;;;;8.33;3.90;;;13.00;17.00;;;;;;5020056;28;20411;-65
2021/04/05 09:49:24;;;;;;;8.00;3.77;;;13.10;16.50;;;;;;5051430;28;20428;-65
2021/04/05 09:52:23;;;;;;;4.70;3.47;;;13.20;16.40;;;;;;5052177;28;20775;-65
2021/04/05 09:54:54;;;;;;;5.23;4.00;;;13.30;16.20;;;;;;5050262;28;20560;-64
2021/04/05 09:57:37;;;;;;;5.33;3.43;;;13.20;15.60;;;;;;5051504;28;20410;-65
2021/04/05 10:00:12;;;;;;;8.40;4.13;;;13.20;15.20;;;;;;5051220;28;20426;-66
2021/04/05 10:02:43;;;;;;;3.43;3.13;;;13.10;15.00;;;;;;5061543;28;20419;-65
2021/04/05 10:05:12;;;;;;;5.67;3.57;;;13.10;14.70;;;;;;5071785;28;20409;-64
2021/04/05 10:07:42;;;;;;;6.10;5.27;;;13.10;16.50;;;;;;5070323;28;20417;-64
2021/04/05 10:10:09;;;;;;;7.57;3.53;;;12.90;14.60;;;;;;5071543;28;20785;-64
2021/04/05 10:12:35;;;;;;;7.97;2.77;;;12.80;14.70;;;;;;5071661;28;20417;-64
2021/04/05 10:15:02;;;;;;;6.67;3.93;;;13.00;14.30;;;;;;5070644;28;20433;-65
2021/04/05 10:17:29;;;;;;;3.80;3.27;;;13.00;13.60;;;;;;5070502;28;20427;-64
2021/04/05 10:19:56;;;;;;;7.23;3.87;;;13.10;13.80;;;;;;5070092;28;20509;-65
2021/04/05 10:22:22;;;;;;;7.70;3.70;;;13.10;14.00;;;;;;5070673;28;20420;-63
2021/04/05 10:24:54;;;;;;;4.00;3.23;;;13.20;13.60;;;;;;5071223;28;20469;-64
2021/04/05 10:27:25;;;;;;;6.37;3.40;;;13.20;13.90;;;;;;5070958;28;20210;-64
2021/04/05 10:29:54;;;;;;;6.70;3.57;;;13.30;13.40;;;;;;5070342;28;20406;-64
2021/04/05 10:32:24;;;;;;;4.93;3.40;;;13.20;13.30;;;;;;5071335;28;20413;-64
2021/04/05 10:34:55;;;;;;;5.87;3.80;;;13.30;13.40;;;;;;5065849;28;20450;-64
2021/04/05 10:37:25;;;;;;;4.67;2.80;;;13.20;13.30;;;;;;5070240;28;20413;-63
2021/04/05 10:39:53;;;;;;;8.20;4.10;;;13.20;13.20;;;;;;5061579;28;20527;-64
2021/04/05 10:42:25;;;;;;;3.97;3.00;;;13.20;12.40;;;;;;5057086;28;20422;-64
2021/04/05 10:44:57;;;;;;;12.10;4.43;;;13.30;12.90;;;;;;5050456;28;20558;-64
2021/04/05 10:47:31;;;;;;;4.23;3.77;;;13.40;13.00;;;;;;5050823;28;20415;-64
2021/04/05 10:49:58;;;;;;;7.47;3.30;;;13.50;12.30;;;;;;5050644;28;20989;-64
2021/04/05 10:52:28;;;;;;;4.17;3.40;;;13.50;12.10;;;;;;5055591;28;20430;-64
2021/04/05 10:54:55;;;;;;;4.90;3.80;;;13.50;12.10;;;;;;5056785;28;21122;-64
2021/04/05 10:57:33;;;;;;;5.07;3.63;;;13.40;12.00;;;;;;5058228;28;20407;-63
2021/04/05 11:00:02;;;;;;;4.23;3.80;;;13.50;11.90;;;;;;5057879;28;20411;-64
2021/04/05 11:02:37;;;;;;;5.33;3.60;;;13.50;12.00;;;;;;5063923;28;20414;-65
2021/04/05 11:05:08;;;;;;;4.00;3.60;;;13.40;11.20;;;;;;5052427;28;20929;-63
2021/04/05 11:07:35;;;;;;;7.87;6.33;;;13.40;12.00;;;;;;5050698;28;20409;-64
2021/04/05 11:10:05;;;;;;;6.83;4.67;;;13.40;11.70;;;;;;5048399;28;20992;-64
2021/04/05 11:12:40;;;;;;;7.03;3.83;;;13.30;11.80;;;;;;5068032;28;20503;-64
2021/04/05 11:15:09;;;;;;;6.80;3.53;;;13.30;11.90;;;;;;5070172;28;20428;-64
2021/04/05 11:17:41;;;;;;;6.83;3.70;;;13.30;11.70;;;;;;5069764;28;20622;-64
2021/04/05 11:20:08;;;;;;;4.43;3.40;;;13.40;12.70;;;;;;5071065;28;20410;-64
2021/04/05 11:22:36;;;;;;;5.80;4.30;;;13.50;13.10;;;;;;5070749;28;20498;-64
2021/04/05 11:25:05;;;;;;;7.80;4.50;;;13.70;13.90;;;;;;5070915;28;20512;-64
2021/04/05 11:27:37;;;;;;;4.50;4.07;;;13.70;14.10;;;;;;5070298;28;20397;-64
2021/04/05 11:30:07;;;;;;;5.00;3.90;;;13.70;14.30;;;;;;5070704;28;20416;-64
2021/04/05 11:32:35;;;;;;;6.10;4.70;;;13.70;14.80;;;;;;5070888;28;20743;-64
2021/04/05 11:35:05;;;;;;;8.77;5.40;;;13.50;15.00;;;;;;5070713;28;20433;-64
2021/04/05 11:37:34;;;;;;;9.10;4.90;;;13.60;15.50;;;;;;5070177;28;20409;-64
2021/04/05 11:40:11;;;;;;;8.63;5.40;;;13.60;16.40;;;;;;5070903;28;20900;-64
2021/04/05 11:42:42;;;;;;;9.27;5.30;;;13.70;16.30;;;;;;5070681;28;20405;-64
2021/04/05 11:45:09;;;;;;;9.37;6.13;;;13.60;16.00;;;;;;5070658;28;20405;-64
2021/04/05 11:47:38;;;;;;;7.37;5.27;;;13.50;16.20;;;;;;5068810;28;20457;-64
2021/04/05 11:50:16;;;;;;;22.63;7.00;;;13.50;17.30;;;;;;5070714;28;20483;-64
2021/04/05 11:52:46;;;;;;;16.93;6.10;;;13.50;17.30;;;;;;5070512;28;20417;-64
2021/04/05 11:55:20;;;;;;;9.27;6.00;;;13.50;17.30;;;;;;5070732;28;20780;-64
2021/04/05 11:57:52;;;;;;;7.83;6.10;;;13.50;17.30;;;;;;5070584;28;20428;-65
2021/04/05 12:00:25;;;;;;;12.70;6.80;;;13.50;17.30;;;;;;5071288;28;20409;-65
2021/04/05 12:03:00;;;;;;;7.83;5.43;;;13.60;17.40;;;;;;5070825;28;20492;-65
2021/04/05 12:05:37;;;;;;;12.07;7.47;;;13.70;17.40;;;;;;5070711;28;20492;-65
2021/04/05 12:08:22;;;;;;;11.60;7.00;;;13.60;17.40;;;;;;5070191;28;20413;-65
2021/04/05 12:10:50;;;;;;;11.83;6.23;;;13.50;17.30;;;;;;5070529;28;20470;-65
2021/04/05 12:13:21;;;;;;;6.23;5.63;;;13.60;17.40;;;;;;5070266;28;20494;-65
2021/04/05 12:15:54;;;;;;;9.60;8.00;;;13.60;17.60;;;;;;5070219;28;20435;-65
2021/04/05 12:18:22;;;;;;;7.43;6.43;;;13.20;18.50;;;;;;5070066;28;20831;-65
2021/04/05 12:20:48;;;;;;;15.93;7.47;;;13.10;19.50;;;;;;5070296;28;20939;-65
2021/04/05 12:23:15;;;;;;;8.53;7.07;;;13.10;19.50;;;;;;5070209;28;20540;-65
2021/04/05 12:25:44;;;;;;;7.57;6.87;;;13.10;19.50;;;;;;5070177;28;20467;-65
2021/04/05 12:28:12;;;;;;;11.43;7.93;;;13.10;19.60;;;;;;5069709;28;20409;-65
2021/04/05 12:30:39;;;;;;;9.77;7.17;;;12.90;20.30;;;;;;5070082;28;20416;-65
2021/04/05 12:33:08;;;;;;;10.13;9.00;;;12.90;21.30;;;;;;5069923;28;20956;-64
2021/04/05 12:35:35;;;;;;;11.37;8.23;;;12.70;21.60;;;;;;5070067;28;20409;-64
2021/04/05 12:38:03;;;;;;;13.97;8.20;;;12.70;21.80;;;;;;5069401;28;20490;-64
2021/04/05 12:40:33;;;;;;;12.77;8.60;;;13.00;21.80;;;;;;5070090;28;21004;-65
2021/04/05 12:43:07;;;;;;;14.60;8.80;;;13.10;21.90;;;;;;5073358;28;20535;-65
2021/04/05 12:45:34;;;;;;;14.10;10.20;;;12.90;22.40;;;;;;5073563;28;20449;-65
2021/04/05 12:48:02;;;;;;;14.70;10.30;;;12.80;22.40;;;;;;5073102;28;20410;-64
2021/04/05 12:50:33;;;;;;;17.87;9.17;;;13.00;22.30;;;;;;5073534;28;20504;-65
2021/04/05 12:53:04;;;;;;;14.10;8.90;;;13.10;22.50;;;;;;5073486;28;20791;-65
2021/04/05 12:55:38;;;;;;;14.87;8.97;;;13.10;22.50;;;;;;5073482;28;20728;-65
2021/04/05 12:58:04;;;;;;;13.53;9.93;;;13.10;22.50;;;;;;5072861;28;20809;-65
2021/04/05 13:00:29;;;;;;;13.03;9.40;;;13.10;22.80;;;;;;5073424;28;20504;-64
2021/04/05 13:03:13;;;;;;;13.73;9.40;;;13.10;22.50;;;;;;5073429;28;20464;-64
2021/04/05 13:05:47;;;;;;;16.10;9.27;;;12.80;22.60;;;;;;5073305;28;20179;-65
2021/04/05 13:08:27;;;;;;;12.20;8.80;;;12.80;22.30;;;;;;5072885;28;20394;-65
2021/04/05 13:11:07;;;;;;;10.83;9.73;;;12.90;22.90;;;;;;5073179;28;20413;-64
2021/04/05 13:13:37;;;;;;;15.27;9.23;;;12.90;22.60;;;;;;5073037;28;20433;-64
2021/04/05 13:16:20;;;;;;;15.20;9.17;;;12.70;22.70;;;;;;5072977;28;20432;-64
2021/04/05 13:18:52;;;;;;;18.63;9.73;;;12.50;23.20;;;;;;5072579;28;20536;-64
2021/04/05 13:21:19;;;;;;;11.60;9.33;;;12.70;23.30;;;;;;5072813;28;20410;-64
2021/04/05 13:23:51;;;;;;;12.23;9.70;;;12.70;22.90;;;;;;5072866;28;20543;-64
2021/04/05 13:26:38;;;;;;;17.33;10.30;;;12.70;22.40;;;;;;5072888;28;20398;-64